Time;durP1;ratioP1;P1;durP2;ratioP2;P2;SDS_P1;SDS_P2;PMS_P1;PMS_P2;Temp;Humidity;BMP_temperature;BMP_pressure;BME280_temperature;BME280_humidity;BME280_pressure;Samples;Min_cycle;Max_cycle;Signal;HPM_P1;HPM_P2
2023/01/26 00:04:18;;;;;;;28.77;14.70;;;15.60;65.60;;;;;;10534007;28;20381;-25
2023/01/26 00:09:20;;;;;;;27.05;13.38;;;15.50;65.30;;;;;;10531658;28;20044;-25
2023/01/26 00:14:22;;;;;;;21.30;12.27;;;15.10;68.10;;;;;;10531484;28;20097;-25
2023/01/26 00:19:25;;;;;;;27.20;14.03;;;15.20;66.90;;;;;;10525930;28;20110;-23
2023/01/26 00:24:27;;;;;;;23.92;13.32;;;15.20;66.40;;;;;;10530832;28;20539;-25
2023/01/26 00:29:28;;;;;;;24.37;13.83;;;15.40;64.90;;;;;;10531046;28;20126;-25
2023/01/26 00:34:32;;;;;;;29.30;14.57;;;15.50;64.70;;;;;;10535486;28;20117;-25
2023/01/26 00:39:33;;;;;;;25.27;14.15;;;14.40;69.70;;;;;;10531063;28;20071;-25
2023/01/26 00:44:39;;;;;;;23.97;12.53;;;15.20;65.80;;;;;;10532184;28;20097;-25
2023/01/26 00:49:42;;;;;;;24.25;12.27;;;15.30;65.20;;;;;;10521754;28;20071;-27
2023/01/26 00:54:44;;;;;;;23.65;12.20;;;15.40;64.90;;;;;;10530597;28;20086;-25
2023/01/26 00:59:46;;;;;;;22.87;13.07;;;15.20;65.70;;;;;;10527887;28;20052;-25
2023/01/26 01:04:49;;;;;;;24.73;12.50;;;15.40;64.70;;;;;;10520474;28;20066;-26
2023/01/26 01:09:51;;;;;;;23.38;12.40;;;15.40;64.60;;;;;;10531271;28;20117;-26
2023/01/26 01:14:53;;;;;;;20.37;11.47;;;15.40;64.50;;;;;;10528994;28;20476;-26
2023/01/26 01:19:56;;;;;;;21.53;12.00;;;15.50;63.90;;;;;;10525451;28;20044;-26
2023/01/26 01:24:58;;;;;;;19.05;10.77;;;15.40;64.10;;;;;;10518674;28;20053;-26
2023/01/26 01:30:00;;;;;;;19.60;11.63;;;15.40;64.20;;;;;;10522742;28;20075;-26
2023/01/26 01:35:04;;;;;;;17.45;10.15;;;15.30;64.30;;;;;;10530377;28;20036;-25
2023/01/26 01:40:10;;;;;;;19.15;10.93;;;15.40;63.50;;;;;;10530993;28;20641;-25
2023/01/26 01:45:41;;;;;;;17.15;10.50;;;15.40;64.10;;;;;;10514154;28;20043;-25
2023/01/26 01:50:44;;;;;;;21.23;11.05;;;15.40;63.80;;;;;;10512819;28;20048;-23
2023/01/26 01:55:47;;;;;;;17.70;10.27;;;15.30;64.30;;;;;;10523045;28;20101;-25
2023/01/26 02:00:48;;;;;;;15.82;9.80;;;15.40;63.90;;;;;;10514934;28;20415;-26
2023/01/26 02:06:00;;;;;;;17.73;9.70;;;15.10;64.70;;;;;;10507887;28;20469;-25
2023/01/26 02:11:06;;;;;;;19.42;10.65;;;15.30;64.30;;;;;;10528647;28;20511;-26
2023/01/26 02:16:08;;;;;;;17.90;10.23;;;15.40;63.80;;;;;;10520437;28;20737;-27
2023/01/26 02:21:14;;;;;;;15.57;8.93;;;15.00;65.10;;;;;;10522699;28;20082;-28
2023/01/26 02:26:19;;;;;;;17.70;9.93;;;15.20;64.40;;;;;;10519774;28;20090;-26
2023/01/26 02:31:23;;;;;;;16.52;9.80;;;15.30;64.20;;;;;;10524358;28;20067;-27
2023/01/26 02:36:27;;;;;;;16.20;9.32;;;15.30;63.80;;;;;;10505627;28;20061;-28
2023/01/26 02:47:11;;;;;;;17.20;8.88;;;15.30;63.60;;;;;;10393492;28;20136;-25
2023/01/26 02:52:14;;;;;;;15.13;8.88;;;15.10;64.70;;;;;;10494101;28;20079;-25
2023/01/26 02:57:17;;;;;;;14.82;8.57;;;15.00;64.80;;;;;;10522723;28;20052;-27
2023/01/26 03:02:20;;;;;;;14.55;8.68;;;15.10;63.90;;;;;;10524560;28;20397;-25
2023/01/26 03:07:22;;;;;;;14.55;8.60;;;15.20;64.10;;;;;;10520789;28;20172;-28
2023/01/26 03:12:25;;;;;;;14.00;8.43;;;15.20;64.00;;;;;;10511724;28;20599;-25
2023/01/26 03:17:27;;;;;;;14.30;8.98;;;15.30;63.70;;;;;;10518237;28;20944;-25
2023/01/26 03:27:49;;;;;;;13.40;7.95;;;15.40;62.90;;;;;;10521034;28;20053;-29
2023/01/26 03:32:51;;;;;;;13.45;8.23;;;15.40;62.80;;;;;;10531237;28;20147;-26
2023/01/26 03:37:54;;;;;;;15.00;9.13;;;15.30;62.90;;;;;;10530682;28;20062;-26
2023/01/26 03:59:06;;;;;;;13.65;8.57;;;15.30;63.10;;;;;;10519540;28;20428;-26
2023/01/26 04:09:31;;;;;;;11.45;6.85;;;15.30;63.00;;;;;;10522920;28;20127;-26
2023/01/26 04:25:14;;;;;;;11.68;7.30;;;15.30;63.00;;;;;;10516091;28;20040;-25
2023/01/26 04:30:18;;;;;;;15.02;8.38;;;15.30;63.00;;;;;;10529344;28;20051;-25
2023/01/26 04:35:20;;;;;;;13.60;7.72;;;15.30;62.80;;;;;;10521232;28;20113;-26
2023/01/26 04:40:22;;;;;;;12.23;7.53;;;15.30;62.90;;;;;;10530142;28;20067;-25
2023/01/26 04:45:25;;;;;;;10.57;7.20;;;15.20;63.30;;;;;;10517890;28;20535;-26
2023/01/26 04:50:27;;;;;;;14.05;7.97;;;15.30;63.30;;;;;;10519038;28;20059;-25
2023/01/26 04:55:29;;;;;;;13.90;7.53;;;15.20;63.30;;;;;;10524822;28;20055;-25
2023/01/26 05:00:32;;;;;;;14.80;7.47;;;15.30;62.90;;;;;;10532059;28;20040;-26
2023/01/26 05:05:36;;;;;;;11.88;6.95;;;15.40;62.50;;;;;;10524297;28;20052;-25
2023/01/26 05:10:38;;;;;;;12.20;7.45;;;15.50;62.40;;;;;;10523877;28;20408;-25
2023/01/26 05:15:41;;;;;;;10.53;6.97;;;15.70;61.90;;;;;;10532530;28;20075;-26
2023/01/26 05:20:43;;;;;;;11.45;6.95;;;15.80;61.80;;;;;;10529944;28;20054;-25
2023/01/26 05:25:45;;;;;;;13.47;7.00;;;15.80;61.90;;;;;;10528715;28;20485;-26
2023/01/26 05:30:48;;;;;;;12.15;6.97;;;15.80;61.90;;;;;;10521562;28;20055;-25
2023/01/26 05:35:51;;;;;;;12.05;5.95;;;15.90;61.90;;;;;;10520471;28;20070;-25
2023/01/26 05:40:53;;;;;;;9.95;6.22;;;15.90;62.20;;;;;;10529078;28;20094;-26
2023/01/26 05:45:56;;;;;;;8.13;5.47;;;15.70;62.50;;;;;;10522653;28;20447;-25
2023/01/26 05:50:58;;;;;;;8.90;5.60;;;16.00;62.20;;;;;;10514710;28;20048;-26
2023/01/26 05:56:00;;;;;;;13.50;5.70;;;15.80;63.20;;;;;;10509617;28;20045;-26
2023/01/26 06:01:05;;;;;;;9.13;5.17;;;15.70;63.20;;;;;;10517633;28;20078;-26
2023/01/26 06:06:07;;;;;;;15.73;4.60;;;15.30;65.20;;;;;;10523179;28;20129;-25
2023/01/26 06:11:09;;;;;;;7.10;4.20;;;15.10;66.30;;;;;;10511930;28;20432;-23
2023/01/26 06:16:12;;;;;;;22.33;4.50;;;15.10;67.80;;;;;;10512893;28;20844;-25
2023/01/26 06:21:14;;;;;;;9.43;4.05;;;14.80;69.00;;;;;;10521955;28;20127;-29
2023/01/26 06:26:16;;;;;;;11.40;4.33;;;14.50;72.50;;;;;;10518751;28;20045;-25
2023/01/26 06:31:22;;;;;;;7.00;3.73;;;14.60;71.90;;;;;;10525576;28;20072;-26
2023/01/26 06:36:24;;;;;;;20.30;3.70;;;14.80;72.10;;;;;;10523134;28;20063;-26
2023/01/26 06:41:26;;;;;;;17.50;3.63;;;14.50;72.90;;;;;;10522683;28;20093;-27
2023/01/26 06:46:29;;;;;;;7.53;3.37;;;14.50;71.10;;;;;;10519275;28;20052;-25
2023/01/26 06:51:48;;;;;;;7.93;3.38;;;14.10;74.90;;;;;;10519689;28;20078;-24
2023/01/26 06:56:49;;;;;;;13.77;3.50;;;14.50;72.90;;;;;;10515993;28;20529;-25
2023/01/26 07:15:06;;;;;;;10.65;3.22;;;13.90;76.50;;;;;;10499670;27;20140;-24
2023/01/26 07:20:09;;;;;;;8.35;3.17;;;14.30;73.90;;;;;;10464935;28;20076;-26
2023/01/26 07:25:11;;;;;;;11.85;3.60;;;14.20;76.00;;;;;;10471028;28;20136;-26
2023/01/26 07:30:14;;;;;;;12.43;3.40;;;14.60;73.90;;;;;;10478927;28;20095;-26
2023/01/26 07:35:16;;;;;;;10.52;3.05;;;15.30;70.40;;;;;;10478697;28;20049;-25
2023/01/26 07:40:18;;;;;;;18.23;3.70;;;15.10;71.40;;;;;;10467688;28;20056;-25
2023/01/26 07:45:21;;;;;;;15.70;3.13;;;14.70;72.90;;;;;;10470357;28;20108;-25
2023/01/26 07:50:24;;;;;;;15.75;3.08;;;14.80;71.30;;;;;;10475937;28;20055;-25
2023/01/26 07:55:26;;;;;;;10.68;3.33;;;15.00;71.50;;;;;;10469074;28;20089;-26
2023/01/26 08:00:29;;;;;;;10.07;3.70;;;13.60;75.20;;;;;;10483843;28;20386;-27
2023/01/26 08:05:32;;;;;;;9.45;3.15;;;14.80;73.50;;;;;;10471853;28;20049;-26
2023/01/26 08:10:34;;;;;;;21.20;3.88;;;14.00;77.60;;;;;;10462262;28;20091;-26
2023/01/26 08:15:37;;;;;;;11.53;3.83;;;14.60;71.40;;;;;;10454796;28;20481;-25
2023/01/26 08:20:38;;;;;;;8.77;3.63;;;14.80;72.60;;;;;;10465855;28;20134;-24
2023/01/26 08:25:40;;;;;;;15.43;3.13;;;14.70;74.00;;;;;;10447785;28;20091;-26
2023/01/26 08:30:44;;;;;;;10.23;3.50;;;14.80;70.00;;;;;;10428069;28;20735;-26
2023/01/26 08:35:45;;;;;;;9.00;4.28;;;15.50;69.00;;;;;;10435315;28;20051;-29
2023/01/26 08:40:51;;;;;;;17.02;5.22;;;15.20;69.10;;;;;;10440414;28;20073;-24
2023/01/26 08:45:55;;;;;;;6.57;2.70;;;14.70;72.50;;;;;;10437784;28;20076;-24
2023/01/26 08:50:58;;;;;;;9.63;3.28;;;14.60;72.80;;;;;;10449308;28;20053;-25
2023/01/26 08:56:01;;;;;;;8.40;2.75;;;14.70;73.30;;;;;;10445405;28;20713;-25
2023/01/26 09:01:06;;;;;;;7.40;3.25;;;14.80;72.20;;;;;;10444989;28;20061;-25
2023/01/26 09:06:10;;;;;;;15.45;3.65;;;15.00;71.40;;;;;;10445543;28;20102;-25
2023/01/26 09:11:12;;;;;;;13.43;3.90;;;14.30;76.00;;;;;;10443664;28;20057;-26
2023/01/26 09:16:18;;;;;;;;;;;14.90;87.80;;;;;;10445599;28;20768;-24
2023/01/26 09:21:22;;;;;;;10.70;3.00;;;15.50;80.90;;;;;;10442103;28;20432;-25
2023/01/26 09:26:24;;;;;;;8.02;2.80;;;14.60;82.80;;;;;;10430767;28;20524;-23
2023/01/26 09:31:27;;;;;;;14.93;3.35;;;14.10;85.60;;;;;;10437951;28;20484;-25
2023/01/26 09:36:29;;;;;;;7.35;3.08;;;14.20;85.80;;;;;;10442481;28;20148;-25
2023/01/26 09:41:48;;;;;;;10.75;3.28;;;14.70;82.80;;;;;;10455887;28;20073;-25
2023/01/26 09:47:06;;;;;;;6.68;2.83;;;14.40;83.20;;;;;;10442259;28;20057;-27
2023/01/26 09:52:15;;;;;;;9.15;2.72;;;14.00;83.20;;;;;;10445192;28;20456;-27
2023/01/26 09:57:21;;;;;;;11.75;3.03;;;14.30;85.60;;;;;;10434141;28;20049;-25
2023/01/26 10:02:35;;;;;;;15.60;3.38;;;13.60;88.90;;;;;;10440884;28;20545;-24
2023/01/26 10:07:37;;;;;;;7.68;3.10;;;12.90;90.50;;;;;;10436913;28;20069;-24
2023/01/26 10:12:39;;;;;;;9.10;2.80;;;13.80;87.10;;;;;;10430352;28;20049;-26
2023/01/26 10:17:44;;;;;;;16.00;3.30;;;13.80;85.90;;;;;;10425272;28;20131;-25
2023/01/26 10:22:48;;;;;;;19.45;3.33;;;12.70;88.60;;;;;;10447959;28;20562;-25
2023/01/26 10:27:50;;;;;;;19.30;3.15;;;11.00;93.70;;;;;;10442407;28;20049;-25
2023/01/26 10:32:54;;;;;;;25.38;3.53;;;10.50;97.50;;;;;;10432588;28;20458;-25
2023/01/26 10:37:57;;;;;;;11.77;3.30;;;10.90;98.30;;;;;;10428891;28;20041;-25
2023/01/26 10:42:59;;;;;;;14.95;3.75;;;10.70;99.40;;;;;;10449248;28;20075;-28
2023/01/26 10:48:18;;;;;;;16.13;3.58;;;10.90;99.90;;;;;;10425695;28;20049;-26
2023/01/26 10:53:27;;;;;;;25.65;5.25;;;10.60;99.90;;;;;;10436334;28;20091;-25
2023/01/26 10:58:46;;;;;;;12.45;4.38;;;11.00;99.90;;;;;;10426572;28;20064;-26
2023/01/26 11:04:05;;;;;;;10.20;4.13;;;11.00;99.90;;;;;;10433518;28;20081;-26
2023/01/26 11:09:16;;;;;;;11.00;4.03;;;12.50;97.50;;;;;;10440166;28;20123;-26
2023/01/26 11:14:19;;;;;;;18.33;3.50;;;13.50;93.60;;;;;;10441950;28;20118;-26
2023/01/26 11:19:30;;;;;;;;;;;12.40;96.10;;;;;;10446806;28;20048;-25
2023/01/26 11:24:40;;;;;;;9.90;3.72;;;13.40;93.40;;;;;;10443626;28;19967;-25
2023/01/26 11:29:55;;;;;;;13.13;3.55;;;14.30;89.00;;;;;;10435355;28;20072;-28
2023/01/26 11:35:09;;;;;;;13.65;3.65;;;13.60;91.30;;;;;;10444679;28;20553;-25
2023/01/26 11:40:26;;;;;;;14.18;3.83;;;12.80;95.60;;;;;;10437911;28;20084;-25
2023/01/26 11:45:35;;;;;;;17.50;3.10;;;13.30;93.60;;;;;;10425198;28;20513;-25
2023/01/26 11:50:44;;;;;;;10.80;3.65;;;12.20;95.40;;;;;;10435609;28;20128;-26
2023/01/26 11:55:58;;;;;;;10.27;3.58;;;13.60;93.00;;;;;;10433705;28;20160;-25
2023/01/26 12:01:02;;;;;;;8.98;2.55;;;14.20;90.30;;;;;;10438121;28;20041;-25
2023/01/26 12:06:08;;;;;;;12.57;2.28;;;13.70;92.30;;;;;;10455761;28;20111;-25
2023/01/26 12:11:25;;;;;;;7.72;2.50;;;14.00;86.80;;;;;;10441076;28;20141;-24
2023/01/26 12:16:35;;;;;;;8.73;2.90;;;14.10;89.40;;;;;;10442065;28;20053;-27
2023/01/26 12:21:43;;;;;;;9.40;2.45;;;14.30;87.80;;;;;;10451849;28;20049;-25
2023/01/26 12:26:49;;;;;;;6.55;2.67;;;14.20;87.00;;;;;;10430038;28;20144;-27
2023/01/26 12:31:57;;;;;;;11.10;2.17;;;14.30;89.00;;;;;;10447478;28;20092;-25
2023/01/26 12:37:15;;;;;;;15.20;2.42;;;14.30;87.20;;;;;;10455439;28;20140;-25
2023/01/26 12:42:23;;;;;;;10.60;2.15;;;13.50;91.90;;;;;;10435382;28;20053;-25
2023/01/26 12:47:33;;;;;;;11.95;2.30;;;14.00;88.20;;;;;;10438068;28;20052;-26
2023/01/26 12:52:44;;;;;;;5.85;2.33;;;14.10;91.10;;;;;;10439084;28;20539;-25
2023/01/26 12:57:52;;;;;;;8.13;1.90;;;14.50;83.80;;;;;;10459911;28;21542;-25
2023/01/26 13:02:58;;;;;;;5.28;1.35;;;14.60;85.10;;;;;;10448223;28;20049;-24
2023/01/26 13:08:39;;;;;;;10.68;2.15;;;15.00;85.50;;;;;;10448049;28;20037;-25
2023/01/26 13:13:54;;;;;;;12.55;3.05;;;14.30;86.50;;;;;;10459056;28;20067;-27
2023/01/26 13:18:57;;;;;;;7.40;1.63;;;13.90;91.10;;;;;;10449395;28;20072;-25
2023/01/26 13:24:00;;;;;;;7.10;1.52;;;14.80;87.00;;;;;;10437973;28;20049;-28
2023/01/26 13:29:34;;;;;;;2.50;1.15;;;15.00;85.70;;;;;;10434805;28;20077;-25
2023/01/26 13:34:39;;;;;;;10.27;2.22;;;14.90;86.50;;;;;;10444320;28;20669;-25
2023/01/26 13:39:45;;;;;;;9.20;1.88;;;14.70;84.80;;;;;;10438055;28;20235;-25
2023/01/26 13:44:52;;;;;;;8.50;1.77;;;15.00;84.10;;;;;;10446032;28;20130;-25
2023/01/26 13:49:54;;;;;;;2.65;0.85;;;14.30;87.40;;;;;;10447585;28;20132;-25
2023/01/26 13:55:00;;;;;;;9.73;1.52;;;15.20;86.80;;;;;;10446166;28;20052;-25
2023/01/26 14:00:03;;;;;;;10.93;2.25;;;15.40;81.80;;;;;;10425849;28;20049;-25
2023/01/26 14:05:05;;;;;;;7.22;0.90;;;14.50;85.20;;;;;;10438232;28;20151;-25
2023/01/26 14:10:17;;;;;;;4.32;1.13;;;15.80;80.50;;;;;;10428851;28;20141;-24
2023/01/26 14:15:24;;;;;;;12.87;1.90;;;15.30;81.20;;;;;;10429000;28;20136;-24
2023/01/26 14:20:28;;;;;;;5.75;1.50;;;15.30;84.10;;;;;;10449623;28;20519;-25
2023/01/26 14:25:32;;;;;;;8.05;2.05;;;16.30;78.40;;;;;;10444629;28;21303;-25
2023/01/26 14:30:35;;;;;;;5.60;1.38;;;15.80;82.70;;;;;;10448910;28;20083;-25
2023/01/26 14:35:37;;;;;;;8.95;2.53;;;15.50;85.50;;;;;;10430266;28;20085;-25
2023/01/26 14:40:46;;;;;;;5.97;1.30;;;15.00;89.00;;;;;;10424918;28;20130;-27
2023/01/26 14:45:51;;;;;;;7.90;1.60;;;15.10;90.00;;;;;;10425397;28;20053;-24
2023/01/26 14:50:53;;;;;;;4.28;1.33;;;15.50;87.10;;;;;;10436963;28;20539;-25
2023/01/26 14:55:56;;;;;;;4.30;1.30;;;15.40;88.00;;;;;;10427289;28;20548;-27
2023/01/26 15:01:00;;;;;;;9.40;1.60;;;15.40;88.90;;;;;;10429466;28;20127;-25
2023/01/26 15:06:17;;;;;;;3.70;0.80;;;15.60;83.90;;;;;;10436814;28;20053;-25
2023/01/26 15:16:53;;;;;;;8.10;1.50;;;15.00;88.10;;;;;;10406462;28;20088;-25
2023/01/26 15:21:55;;;;;;;6.28;0.88;;;16.10;80.60;;;;;;10427097;28;20053;-25
2023/01/26 15:27:06;;;;;;;3.93;1.33;;;15.80;82.80;;;;;;10442026;28;20049;-25
2023/01/26 15:32:27;;;;;;;6.03;1.38;;;15.20;86.20;;;;;;10439859;28;20060;-26
2023/01/26 15:37:32;;;;;;;7.55;2.15;;;15.30;80.30;;;;;;10430878;28;20045;-24
2023/01/26 15:42:35;;;;;;;16.35;2.10;;;14.70;89.20;;;;;;10427223;28;20044;-25
2023/01/26 15:47:37;;;;;;;8.52;1.60;;;14.70;90.70;;;;;;10432863;28;20124;-25
2023/01/26 15:52:40;;;;;;;8.10;1.37;;;15.80;84.40;;;;;;10431845;28;20140;-25
2023/01/26 15:57:43;;;;;;;3.90;1.67;;;15.30;87.40;;;;;;10453682;28;20045;-26
2023/01/26 16:02:45;;;;;;;8.95;1.67;;;15.90;86.20;;;;;;10435505;28;20119;-25
2023/01/26 16:07:47;;;;;;;3.73;0.80;;;14.80;85.90;;;;;;10439015;28;20067;-26
2023/01/26 16:12:51;;;;;;;3.20;1.00;;;16.00;82.30;;;;;;10450897;28;20053;-24
2023/01/26 16:17:53;;;;;;;4.30;1.20;;;15.90;83.30;;;;;;10441534;28;20486;-25
2023/01/26 16:22:55;;;;;;;7.90;1.57;;;16.00;85.50;;;;;;10443377;28;20069;-26
2023/01/26 16:28:00;;;;;;;6.77;1.97;;;15.90;84.10;;;;;;10443158;28;20053;-25
2023/01/26 16:33:02;;;;;;;3.95;1.10;;;15.90;87.20;;;;;;10437425;28;20072;-25
2023/01/26 16:38:06;;;;;;;5.90;1.00;;;16.60;82.20;;;;;;10424135;28;20099;-27
2023/01/26 16:43:16;;;;;;;11.23;2.20;;;16.60;78.30;;;;;;10446626;28;20061;-26
2023/01/26 16:48:19;;;;;;;6.40;1.60;;;14.70;90.40;;;;;;10427055;28;20132;-26
2023/01/26 16:53:22;;;;;;;;;;;16.00;85.70;;;;;;10437979;28;20076;-27
2023/01/26 16:58:26;;;;;;;7.82;1.52;;;16.90;78.30;;;;;;10441628;28;20019;-25
2023/01/26 17:03:28;;;;;;;6.57;2.45;;;16.00;82.80;;;;;;10417672;28;20079;-26
2023/01/26 17:08:30;;;;;;;6.97;1.90;;;15.90;85.90;;;;;;10425930;28;20134;-24
2023/01/26 17:13:33;;;;;;;17.83;2.43;;;16.00;87.60;;;;;;10432004;28;20516;-24
2023/01/26 17:18:35;;;;;;;15.15;2.83;;;15.80;82.30;;;;;;10424873;28;20128;-24
2023/01/26 17:23:40;;;;;;;8.43;4.43;;;12.90;97.60;;;;;;10432816;28;20131;-25
2023/01/26 17:28:44;;;;;;;16.55;4.63;;;12.20;99.90;;;;;;10436618;28;20045;-24
2023/01/26 17:33:47;;;;;;;22.35;5.30;;;11.10;99.90;;;;;;10423525;28;20183;-25
2023/01/26 17:38:49;;;;;;;25.35;5.60;;;11.90;99.20;;;;;;10440564;28;20626;-25
2023/01/26 17:43:52;;;;;;;18.57;7.03;;;12.60;99.90;;;;;;10432758;28;20045;-26
2023/01/26 17:48:54;;;;;;;16.60;4.95;;;12.10;99.90;;;;;;10436831;28;20132;-26
2023/01/26 17:53:56;;;;;;;17.07;3.13;;;11.90;99.60;;;;;;10433715;28;20497;-27
2023/01/26 17:59:00;;;;;;;15.03;3.73;;;11.60;93.30;;;;;;10441963;28;20409;-25
2023/01/26 18:04:02;;;;;;;18.42;5.15;;;11.90;99.90;;;;;;10429102;28;20564;-26
2023/01/26 18:09:04;;;;;;;17.40;6.97;;;11.80;93.10;;;;;;10426108;28;20049;-25
2023/01/26 18:14:08;;;;;;;24.47;4.07;;;12.70;99.90;;;;;;10437894;28;20688;-23
2023/01/26 18:19:10;;;;;;;17.25;7.22;;;11.20;96.70;;;;;;10426452;28;20076;-25
2023/01/26 18:24:12;;;;;;;19.02;8.13;;;11.90;99.90;;;;;;10440060;28;20045;-25
2023/01/26 18:29:15;;;;;;;13.48;5.90;;;13.10;99.90;;;;;;10417371;28;20136;-26
2023/01/26 18:34:17;;;;;;;12.27;5.53;;;12.50;99.90;;;;;;10441295;28;20053;-25
2023/01/26 18:39:19;;;;;;;25.57;9.57;;;12.10;96.70;;;;;;10430079;28;20091;-25
2023/01/26 18:44:23;;;;;;;16.30;5.50;;;13.70;98.10;;;;;;10437606;28;20511;-26
2023/01/26 18:49:25;;;;;;;19.10;5.30;;;12.50;95.00;;;;;;10434210;28;20053;-26
2023/01/26 18:54:28;;;;;;;22.17;5.60;;;11.40;99.90;;;;;;10444174;28;20101;-24
2023/01/26 18:59:31;;;;;;;12.68;5.05;;;12.30;92.20;;;;;;10428314;28;20047;-25
2023/01/26 19:04:34;;;;;;;17.48;5.50;;;12.20;98.30;;;;;;10437951;28;20053;-24
2023/01/26 19:09:36;;;;;;;18.98;4.82;;;11.80;99.90;;;;;;10433957;28;20088;-25
2023/01/26 19:14:39;;;;;;;15.75;5.57;;;11.90;99.90;;;;;;10424612;28;20057;-25
2023/01/26 19:19:41;;;;;;;21.23;4.90;;;12.60;99.90;;;;;;10443357;28;20049;-25
2023/01/26 19:24:43;;;;;;;14.52;3.60;;;11.20;99.90;;;;;;10440426;28;20382;-26
2023/01/26 19:29:47;;;;;;;12.35;4.53;;;11.60;99.90;;;;;;10441758;28;20055;-25
2023/01/26 19:34:48;;;;;;;16.15;3.42;;;11.70;99.00;;;;;;10437138;28;20139;-26
2023/01/26 19:39:50;;;;;;;11.93;3.85;;;11.10;99.70;;;;;;10418362;28;20533;-24
2023/01/26 19:44:53;;;;;;;15.45;4.18;;;11.50;96.00;;;;;;10443144;28;20045;-25
2023/01/26 19:49:55;;;;;;;8.50;2.55;;;11.50;99.90;;;;;;10444187;28;20054;-25
2023/01/26 19:54:57;;;;;;;12.68;2.47;;;11.70;93.50;;;;;;10440718;28;20077;-25
2023/01/26 20:00:00;;;;;;;11.80;2.55;;;11.70;99.90;;;;;;10443266;28;20064;-25
2023/01/26 20:05:03;;;;;;;25.70;4.25;;;12.00;99.90;;;;;;10438290;28;20134;-27
2023/01/26 20:10:06;;;;;;;8.68;2.90;;;11.80;99.90;;;;;;10421427;28;20055;-25
2023/01/26 20:15:10;;;;;;;17.23;2.38;;;11.90;99.90;;;;;;10444457;28;20490;-26
2023/01/26 20:20:12;;;;;;;12.38;2.95;;;10.90;98.90;;;;;;10436595;28;20118;-26
2023/01/26 20:25:14;;;;;;;11.20;2.88;;;10.90;96.80;;;;;;10452301;28;20071;-25
2023/01/26 20:30:18;;;;;;;12.73;3.00;;;11.50;98.00;;;;;;10442304;28;20506;-25
2023/01/26 20:35:20;;;;;;;8.77;2.50;;;11.10;99.90;;;;;;10425363;28;20052;-25
2023/01/26 20:40:22;;;;;;;10.18;2.30;;;11.90;99.90;;;;;;10439840;28;20053;-24
2023/01/26 20:45:25;;;;;;;8.10;2.33;;;11.10;99.90;;;;;;10439320;28;20136;-26
2023/01/26 20:50:27;;;;;;;15.20;1.88;;;10.90;96.80;;;;;;10436779;28;20769;-27
2023/01/26 20:55:29;;;;;;;12.60;2.90;;;10.70;99.90;;;;;;10444443;28;20478;-25
2023/01/26 21:00:34;;;;;;;8.80;2.03;;;10.50;99.90;;;;;;10427298;28;20467;-25
2023/01/26 21:05:36;;;;;;;8.02;2.75;;;11.50;99.90;;;;;;10449488;28;20045;-25
2023/01/26 21:10:38;;;;;;;12.60;2.78;;;11.30;99.90;;;;;;10447661;28;20071;-25
2023/01/26 21:15:41;;;;;;;6.90;2.28;;;10.80;96.50;;;;;;10432104;28;20562;-26
2023/01/26 21:20:43;;;;;;;16.58;1.75;;;10.60;96.40;;;;;;10421710;28;20041;-26
2023/01/26 21:25:45;;;;;;;13.93;2.20;;;10.20;99.90;;;;;;10437965;28;20135;-25
2023/01/26 21:30:57;;;;;;;8.02;2.13;;;10.50;99.90;;;;;;10416428;28;20448;-28
2023/01/26 21:36:01;;;;;;;8.63;2.00;;;11.00;99.90;;;;;;10425260;28;20136;-24
2023/01/26 21:41:54;;;;;;;5.38;2.38;;;12.00;99.90;;;;;;10422235;28;20494;-28
2023/01/26 21:46:30;;;;;;;5.72;2.35;;;13.80;95.20;;;;;;10432520;28;20427;-26
2023/01/26 21:56:52;;;;;;;10.13;2.78;;;14.30;89.80;;;;;;10420374;28;20494;-26
2023/01/26 22:01:57;;;;;;;9.88;3.10;;;14.30;93.00;;;;;;10434884;28;20132;-25
2023/01/26 22:06:59;;;;;;;7.80;1.98;;;14.60;90.50;;;;;;10433858;28;20160;-25
2023/01/26 22:12:01;;;;;;;5.88;2.65;;;14.90;84.70;;;;;;10439542;28;20454;-22
2023/01/26 22:17:05;;;;;;;11.70;2.42;;;14.90;90.50;;;;;;10430535;28;20082;-23
2023/01/26 22:22:07;;;;;;;8.77;2.58;;;14.40;90.90;;;;;;10435538;28;20555;-25
2023/01/26 22:27:08;;;;;;;7.10;2.53;;;14.50;91.80;;;;;;10445566;28;20874;-23
2023/01/26 22:32:12;;;;;;;10.60;2.97;;;15.40;85.90;;;;;;10425270;28;20569;-28
2023/01/26 22:37:14;;;;;;;7.85;2.85;;;15.30;85.10;;;;;;10423588;28;20144;-26
2023/01/26 22:42:17;;;;;;;6.83;2.13;;;15.20;85.30;;;;;;10425570;28;20067;-28
2023/01/26 22:47:21;;;;;;;6.97;2.72;;;15.50;82.20;;;;;;10420082;28;20049;-26
2023/01/26 22:52:23;;;;;;;16.85;2.63;;;15.10;86.00;;;;;;10430180;28;20104;-24
2023/01/26 22:57:25;;;;;;;9.23;2.60;;;15.40;81.80;;;;;;10434925;28;20143;-26
2023/01/26 23:02:28;;;;;;;6.60;2.40;;;15.10;86.10;;;;;;10419433;28;20143;-25
2023/01/26 23:07:30;;;;;;;4.05;2.05;;;14.50;90.20;;;;;;10434086;28;20480;-26
2023/01/26 23:12:32;;;;;;;6.07;1.93;;;14.70;90.60;;;;;;10422483;28;20110;-27
2023/01/26 23:17:35;;;;;;;9.25;2.40;;;14.50;88.70;;;;;;10425225;28;20049;-27
2023/01/26 23:22:37;;;;;;;6.90;1.95;;;14.70;89.00;;;;;;10422445;28;20458;-25
2023/01/26 23:27:39;;;;;;;7.85;2.00;;;14.60;90.50;;;;;;10421550;28;20563;-26
2023/01/26 23:32:42;;;;;;;10.60;3.40;;;14.50;90.60;;;;;;10422597;28;20107;-28
2023/01/26 23:37:44;;;;;;;8.40;2.28;;;14.60;90.70;;;;;;10436928;28;20096;-25
2023/01/26 23:42:46;;;;;;;5.87;2.07;;;14.60;87.60;;;;;;10433213;28;20136;-24
2023/01/26 23:47:49;;;;;;;11.07;2.50;;;14.70;90.00;;;;;;10436155;28;20486;-25
2023/01/26 23:52:51;;;;;;;13.35;2.20;;;15.00;86.80;;;;;;10429217;28;20072;-25
2023/01/26 23:57:53;;;;;;;12.90;2.23;;;14.20;89.10;;;;;;10429284;28;20071;-25
